createdAt,value
2017-12-09T00:01:41.270Z,1.30
2017-12-09T00:04:07.889Z,1.70
2017-12-09T00:06:34.800Z,1.50
2017-12-09T00:09:01.331Z,1.70
2017-12-09T00:11:27.916Z,2.03
2017-12-09T00:13:54.477Z,1.30
2017-12-09T00:16:21.402Z,1.75
2017-12-09T00:18:48.079Z,1.52
2017-12-09T00:21:14.994Z,1.80
2017-12-09T00:23:41.577Z,1.80
2017-12-09T00:26:08.230Z,2.10
2017-12-09T00:28:34.794Z,1.77
2017-12-09T00:31:01.358Z,1.85
2017-12-09T00:33:28.346Z,1.70
2017-12-09T00:35:54.906Z,1.95
2017-12-09T00:38:21.471Z,1.80
2017-12-09T00:40:48.074Z,1.48
2017-12-09T00:43:14.605Z,1.73
2017-12-09T00:45:41.149Z,2.00
2017-12-09T00:48:07.758Z,2.12
2017-12-09T00:50:34.306Z,1.90
2017-12-09T00:53:00.853Z,1.90
2017-12-09T00:55:27.464Z,2.60
2017-12-09T00:57:54.009Z,3.12
2017-12-09T01:00:20.541Z,2.72
2017-12-09T01:02:47.162Z,2.33
2017-12-09T01:05:14.079Z,2.70
2017-12-09T01:07:40.622Z,2.00
2017-12-09T01:10:07.226Z,2.70
2017-12-09T01:12:34.125Z,3.67
2017-12-09T01:15:00.670Z,2.92
2017-12-09T01:17:39.638Z,3.22
2017-12-09T01:20:06.180Z,3.40
2017-12-09T01:22:32.717Z,2.85
2017-12-09T01:24:59.334Z,2.95
2017-12-09T01:27:25.925Z,2.58
2017-12-09T01:29:52.490Z,2.78
2017-12-09T01:32:19.237Z,3.15
2017-12-09T01:34:45.809Z,3.33
2017-12-09T01:37:12.386Z,3.22
2017-12-09T01:39:39.005Z,3.30
2017-12-09T01:42:05.638Z,3.40
2017-12-09T01:44:32.617Z,3.22
2017-12-09T01:46:59.264Z,3.10
2017-12-09T01:49:25.911Z,3.47
2017-12-09T01:51:52.532Z,3.35
2017-12-09T01:54:19.209Z,3.60
2017-12-09T01:56:45.813Z,3.10
2017-12-09T01:59:12.432Z,2.95
2017-12-09T02:01:39.170Z,3.25
2017-12-09T02:04:05.825Z,3.03
2017-12-09T02:06:32.430Z,3.05
2017-12-09T02:08:59.089Z,4.35
2017-12-09T02:11:26.057Z,3.50
2017-12-09T02:13:53.075Z,3.80
2017-12-09T02:16:19.729Z,3.00
2017-12-09T02:18:46.398Z,3.20
2017-12-09T02:21:13.385Z,3.90
2017-12-09T02:23:40.059Z,4.40
2017-12-09T02:26:06.673Z,3.30
2017-12-09T02:28:33.285Z,3.08
2017-12-09T02:30:59.954Z,3.70
2017-12-09T02:33:27.238Z,3.58
2017-12-09T02:35:53.833Z,3.58
2017-12-09T02:38:23.363Z,3.12
2017-12-09T02:40:49.978Z,3.00
2017-12-09T02:43:16.599Z,2.97
2017-12-09T02:45:43.270Z,2.58
2017-12-09T02:48:09.891Z,3.35
2017-12-09T02:50:36.882Z,3.00
2017-12-09T02:53:03.558Z,3.20
2017-12-09T02:55:30.170Z,2.78
2017-12-09T02:57:57.202Z,3.85
2017-12-09T03:00:24.242Z,3.55
2017-12-09T03:02:50.850Z,2.95
2017-12-09T03:05:17.505Z,3.87
2017-12-09T03:07:44.178Z,2.92
2017-12-09T03:10:10.773Z,3.80
2017-12-09T03:12:37.390Z,3.15
2017-12-09T03:15:04.042Z,3.53
2017-12-09T03:17:30.626Z,3.95
2017-12-09T03:19:57.207Z,3.30
2017-12-09T03:22:23.891Z,3.25
2017-12-09T03:24:50.845Z,2.72
2017-12-09T03:27:17.830Z,2.85
2017-12-09T03:29:44.463Z,3.03
2017-12-09T03:32:11.430Z,2.72
2017-12-09T03:34:38.041Z,2.80
2017-12-09T03:37:04.701Z,2.33
2017-12-09T03:39:31.337Z,2.50
2017-12-09T03:41:57.942Z,3.10
2017-12-09T03:44:24.622Z,2.85
2017-12-09T03:49:24.977Z,2.75
2017-12-09T03:51:51.622Z,2.45
2017-12-09T03:54:18.212Z,2.60
2017-12-09T03:56:44.870Z,2.40
2017-12-09T03:59:11.865Z,2.60
2017-12-09T04:01:38.482Z,3.37
2017-12-09T04:04:05.518Z,2.80
2017-12-09T04:06:32.168Z,2.70
2017-12-09T04:08:58.764Z,3.05
2017-12-09T04:11:25.417Z,2.70
2017-12-09T04:13:52.037Z,3.70
2017-12-09T04:16:19.030Z,4.50
2017-12-09T04:18:45.703Z,5.35
2017-12-09T04:21:12.314Z,3.28
2017-12-09T04:23:38.940Z,3.33
2017-12-09T04:26:05.651Z,3.05
2017-12-09T04:28:32.265Z,2.40
2017-12-09T04:30:58.870Z,2.60
2017-12-09T04:33:25.538Z,3.00
2017-12-09T04:35:52.494Z,3.65
2017-12-09T04:38:19.490Z,3.42
2017-12-09T04:40:46.129Z,2.92
2017-12-09T04:43:12.737Z,3.20
2017-12-09T04:45:39.367Z,2.92
2017-12-09T04:48:06.037Z,2.10
2017-12-09T04:50:32.641Z,2.65
2017-12-09T04:52:59.258Z,2.80
2017-12-09T04:55:25.894Z,2.60
2017-12-09T04:57:52.854Z,2.08
2017-12-09T05:00:19.801Z,2.28
2017-12-09T05:02:46.817Z,2.45
2017-12-09T05:05:13.421Z,2.00
2017-12-09T05:07:40.441Z,2.40
2017-12-09T05:10:07.117Z,1.83
2017-12-09T05:12:34.062Z,2.50
2017-12-09T05:15:00.641Z,1.70
2017-12-09T05:17:27.317Z,2.10
2017-12-09T05:19:53.924Z,2.67
2017-12-09T05:22:20.901Z,2.00
2017-12-09T05:24:47.582Z,2.22
2017-12-09T05:27:14.178Z,1.95
2017-12-09T05:29:41.161Z,2.45
2017-12-09T05:32:07.911Z,2.33
2017-12-09T05:34:34.518Z,2.05
2017-12-09T05:37:01.142Z,2.90
2017-12-09T05:39:27.801Z,2.60
2017-12-09T05:41:54.418Z,2.00
2017-12-09T05:44:21.022Z,3.35
2017-12-09T05:46:47.697Z,3.37
2017-12-09T05:49:14.313Z,2.20
2017-12-09T05:51:40.938Z,4.35
2017-12-09T05:54:07.613Z,2.50
2017-12-09T05:56:34.222Z,3.25
2017-12-09T05:59:00.833Z,2.20
2017-12-09T06:01:27.509Z,2.35
2017-12-09T06:03:54.085Z,2.03
2017-12-09T06:06:20.757Z,1.92
2017-12-09T06:08:47.430Z,2.30
2017-12-09T06:11:14.417Z,2.47
2017-12-09T06:13:41.017Z,2.75
2017-12-09T06:16:07.681Z,2.42
2017-12-09T06:18:34.682Z,2.12
2017-12-09T06:21:01.290Z,2.10
2017-12-09T06:23:28.696Z,2.40
2017-12-09T06:25:55.293Z,1.90
2017-12-09T06:28:21.890Z,2.37
2017-12-09T06:30:48.572Z,2.40
2017-12-09T06:33:15.177Z,2.60
2017-12-09T06:35:41.782Z,2.35
2017-12-09T06:38:08.446Z,1.95
2017-12-09T06:40:35.446Z,2.28
2017-12-09T06:43:02.045Z,2.47
2017-12-09T06:45:29.078Z,1.95
2017-12-09T06:47:55.690Z,2.60
2017-12-09T06:50:22.299Z,1.90
2017-12-09T06:52:49.301Z,2.10
2017-12-09T06:55:15.943Z,2.45
2017-12-09T06:57:42.549Z,2.00
2017-12-09T07:00:09.213Z,2.30
2017-12-09T07:02:36.218Z,2.20
2017-12-09T07:05:02.835Z,2.60
2017-12-09T07:07:29.511Z,2.62
2017-12-09T07:09:56.132Z,2.60
2017-12-09T07:12:22.761Z,2.35
2017-12-09T07:14:49.898Z,2.15
2017-12-09T07:17:16.481Z,2.97
2017-12-09T07:19:43.431Z,2.95
2017-12-09T07:22:10.594Z,2.65
2017-12-09T07:24:37.566Z,2.20
2017-12-09T07:27:04.199Z,2.78
2017-12-09T07:29:31.251Z,2.60
2017-12-09T07:31:58.246Z,2.50
2017-12-09T07:34:24.897Z,1.90
2017-12-09T07:36:51.534Z,2.50
2017-12-09T07:39:18.170Z,2.95
2017-12-09T07:41:45.170Z,2.83
2017-12-09T07:44:11.854Z,3.42
2017-12-09T07:46:38.461Z,3.40
2017-12-09T07:49:06.502Z,2.72
2017-12-09T07:51:33.546Z,3.20
2017-12-09T07:54:00.150Z,2.40
2017-12-09T07:56:26.746Z,2.55
2017-12-09T07:58:53.429Z,2.67
2017-12-09T08:01:20.013Z,2.30
2017-12-09T08:03:47.143Z,3.50
2017-12-09T08:06:13.816Z,3.00
2017-12-09T08:08:40.442Z,2.80
2017-12-09T08:11:07.076Z,2.78
2017-12-09T08:13:34.142Z,2.08
2017-12-09T08:16:00.882Z,2.65
2017-12-09T08:18:27.934Z,2.30
2017-12-09T08:20:54.962Z,2.53
2017-12-09T08:23:21.558Z,2.78
2017-12-09T08:25:48.201Z,2.50
2017-12-09T08:28:14.896Z,2.65
2017-12-09T08:30:41.882Z,2.85
2017-12-09T08:33:08.869Z,2.45
2017-12-09T08:35:35.905Z,2.58
2017-12-09T08:38:02.882Z,2.72
2017-12-09T08:40:29.529Z,2.75
2017-12-09T08:42:56.185Z,3.10
2017-12-09T08:45:22.795Z,2.50
2017-12-09T08:47:49.418Z,2.45
2017-12-09T08:50:16.083Z,2.65
2017-12-09T08:52:42.698Z,2.80
2017-12-09T08:55:09.322Z,2.33
2017-12-09T08:57:35.986Z,2.40
2017-12-09T09:00:02.577Z,2.55
2017-12-09T09:02:29.189Z,1.95
2017-12-09T09:04:55.874Z,2.53
2017-12-09T09:07:22.534Z,2.22
2017-12-09T09:09:49.154Z,2.17
2017-12-09T09:12:15.831Z,3.05
2017-12-09T09:14:42.828Z,2.70
2017-12-09T09:17:09.426Z,2.50
2017-12-09T09:19:36.090Z,2.58
2017-12-09T09:22:02.701Z,2.90
2017-12-09T09:24:29.302Z,2.95
2017-12-09T09:26:55.962Z,2.50
2017-12-09T09:29:22.575Z,2.03
2017-12-09T09:31:49.190Z,2.50
2017-12-09T09:34:15.813Z,2.65
2017-12-09T09:36:42.834Z,1.98
2017-12-09T09:39:09.450Z,1.95
2017-12-09T09:41:36.093Z,1.92
2017-12-09T09:44:02.682Z,2.47
2017-12-09T09:46:29.293Z,2.03
2017-12-09T09:48:55.974Z,1.92
2017-12-09T09:51:22.585Z,2.45
2017-12-09T09:53:49.198Z,2.15
2017-12-09T09:56:16.258Z,2.12
2017-12-09T09:58:43.258Z,2.10
2017-12-09T10:01:10.788Z,2.20
2017-12-09T10:03:37.811Z,2.85
2017-12-09T10:06:11.450Z,3.10
2017-12-09T10:08:38.512Z,2.72
2017-12-09T10:11:05.518Z,2.42
2017-12-09T10:13:32.142Z,2.00
2017-12-09T10:15:58.870Z,2.22
2017-12-09T10:18:25.865Z,2.05
2017-12-09T10:20:52.498Z,1.80
2017-12-09T10:23:19.239Z,2.25
2017-12-09T10:25:45.849Z,1.50
2017-12-09T10:28:12.449Z,1.20
2017-12-09T10:30:39.110Z,1.75
2017-12-09T10:33:05.717Z,1.60
2017-12-09T10:35:32.331Z,1.70
2017-12-09T10:37:58.998Z,1.65
2017-12-09T10:40:25.598Z,1.73
2017-12-09T10:42:52.210Z,1.23
2017-12-09T10:45:18.850Z,1.40
2017-12-09T10:47:45.450Z,1.48
2017-12-09T10:50:12.058Z,1.65
2017-12-09T10:52:39.090Z,1.60
2017-12-09T10:55:05.734Z,2.00
2017-12-09T10:57:32.359Z,1.70
2017-12-09T10:59:59.083Z,2.10
2017-12-09T11:02:26.402Z,2.00
2017-12-09T11:04:52.989Z,1.10
2017-12-09T11:07:20.368Z,1.50
2017-12-09T11:09:47.127Z,1.40
2017-12-09T11:12:13.850Z,1.30
2017-12-09T11:14:40.610Z,1.25
2017-12-09T11:17:07.226Z,1.42
2017-12-09T11:19:33.837Z,1.30
2017-12-09T11:22:00.528Z,1.75
2017-12-09T11:24:27.154Z,1.40
2017-12-09T11:26:53.785Z,2.10
2017-12-09T11:29:20.463Z,1.52
2017-12-09T11:31:47.084Z,1.60
2017-12-09T11:34:13.702Z,1.60
2017-12-09T11:36:41.036Z,1.85
2017-12-09T11:39:08.038Z,1.50
2017-12-09T11:41:34.766Z,1.50
2017-12-09T11:44:01.502Z,2.20
2017-12-09T11:46:28.566Z,2.10
2017-12-09T11:48:55.181Z,1.90
2017-12-09T11:51:21.941Z,2.08
2017-12-09T11:53:48.578Z,1.65
2017-12-09T11:56:15.243Z,1.40
2017-12-09T11:58:41.921Z,1.70
2017-12-09T12:01:08.923Z,1.55
2017-12-09T12:03:35.537Z,1.40
2017-12-09T12:06:02.578Z,2.70
2017-12-09T12:08:29.285Z,1.80
2017-12-09T12:10:55.874Z,2.22
2017-12-09T12:13:22.655Z,1.95
2017-12-09T12:15:49.649Z,2.97
2017-12-09T12:18:16.270Z,2.30
2017-12-09T12:20:42.936Z,2.47
2017-12-09T12:23:09.557Z,1.90
2017-12-09T12:25:36.570Z,2.60
2017-12-09T12:28:03.253Z,2.65
2017-12-09T12:30:29.853Z,2.10
2017-12-09T12:32:56.466Z,1.80
2017-12-09T12:35:23.537Z,1.40
2017-12-09T12:37:50.213Z,1.80
2017-12-09T12:40:16.834Z,2.15
2017-12-09T12:42:43.518Z,1.40
2017-12-09T12:45:10.130Z,1.87
2017-12-09T12:47:37.120Z,2.45
2017-12-09T12:50:03.790Z,1.70
2017-12-09T12:52:30.477Z,1.70
2017-12-09T12:55:04.134Z,1.50
2017-12-09T12:57:30.737Z,1.52
2017-12-09T12:59:57.749Z,1.37
2017-12-09T13:02:24.415Z,1.42
2017-12-09T13:04:51.034Z,2.05
2017-12-09T13:07:17.657Z,1.20
2017-12-09T13:09:44.379Z,1.62
2017-12-09T13:12:11.010Z,1.30
2017-12-09T13:14:38.026Z,2.35
2017-12-09T13:17:04.690Z,1.67
2017-12-09T13:19:31.314Z,2.85
2017-12-09T13:21:57.933Z,2.50
2017-12-09T13:24:24.618Z,1.35
2017-12-09T13:26:51.241Z,1.55
2017-12-09T13:29:18.222Z,1.62
2017-12-09T13:31:44.893Z,1.60
2017-12-09T13:34:11.522Z,1.60
2017-12-09T13:36:38.092Z,1.90
2017-12-09T13:39:04.773Z,1.52
2017-12-09T13:41:31.763Z,1.58
2017-12-09T13:43:58.761Z,1.50
2017-12-09T13:46:25.500Z,2.15
2017-12-09T13:48:52.118Z,1.83
2017-12-09T13:51:19.073Z,2.60
2017-12-09T13:53:46.101Z,3.47
2017-12-09T13:56:12.730Z,2.35
2017-12-09T13:58:39.269Z,1.65
2017-12-09T14:01:05.882Z,2.30
2017-12-09T14:03:32.854Z,2.30
2017-12-09T14:05:59.485Z,1.67
2017-12-09T14:08:26.513Z,2.25
2017-12-09T14:10:53.162Z,2.10
2017-12-09T14:13:19.758Z,1.67
2017-12-09T14:15:46.405Z,2.17
2017-12-09T14:18:13.010Z,1.85
2017-12-09T14:20:39.557Z,2.10
2017-12-09T14:23:06.229Z,2.42
2017-12-09T14:25:33.218Z,2.37
2017-12-09T14:27:59.765Z,2.12
2017-12-09T14:30:26.386Z,2.55
2017-12-09T14:32:53.298Z,1.85
2017-12-09T14:35:19.850Z,1.30
2017-12-09T14:37:46.471Z,2.05
2017-12-09T14:40:13.070Z,1.50
2017-12-09T14:42:39.698Z,1.73
2017-12-09T14:45:06.350Z,1.73
2017-12-09T14:47:32.893Z,1.60
2017-12-09T14:49:59.460Z,1.40
2017-12-09T14:52:26.530Z,1.58
2017-12-09T14:54:53.495Z,2.62
2017-12-09T14:57:20.502Z,4.97
2017-12-09T14:59:47.118Z,5.15
2017-12-09T15:02:13.687Z,2.47
2017-12-09T15:04:40.225Z,1.75
2017-12-09T15:07:06.857Z,2.78
2017-12-09T15:09:33.485Z,1.45
2017-12-09T15:12:00.408Z,1.37
2017-12-09T15:14:27.014Z,1.40
2017-12-09T15:16:53.558Z,1.08
2017-12-09T15:19:20.102Z,2.37
2017-12-09T15:21:46.701Z,1.58
2017-12-09T15:24:13.254Z,2.20
2017-12-09T15:26:39.786Z,1.60
2017-12-09T15:29:06.392Z,1.80
2017-12-09T15:31:33.014Z,1.75
2017-12-09T15:33:59.639Z,1.52
2017-12-09T15:36:26.294Z,2.03
2017-12-09T15:38:52.901Z,1.70
2017-12-09T15:41:19.499Z,1.90
2017-12-09T15:43:46.165Z,1.40
2017-12-09T15:46:13.126Z,1.73
2017-12-09T15:48:40.106Z,1.90
2017-12-09T15:51:06.773Z,2.37
2017-12-09T15:53:33.374Z,1.80
2017-12-09T15:56:00.375Z,1.37
2017-12-09T15:58:27.034Z,1.62
2017-12-09T16:00:53.634Z,1.60
2017-12-09T16:03:20.606Z,1.45
2017-12-09T16:05:47.281Z,2.00
2017-12-09T16:08:13.881Z,1.15
2017-12-09T16:10:40.518Z,1.80
2017-12-09T16:13:07.201Z,1.65
2017-12-09T16:15:33.833Z,2.67
2017-12-09T16:18:00.829Z,3.35
2017-12-09T16:20:27.497Z,2.90
2017-12-09T16:22:54.113Z,3.30
2017-12-09T16:25:20.736Z,3.70
2017-12-09T16:27:47.905Z,3.00
2017-12-09T16:30:14.911Z,2.45
2017-12-09T16:32:41.516Z,3.37
2017-12-09T16:35:08.533Z,3.35
2017-12-09T16:37:35.145Z,2.20
2017-12-09T16:40:01.762Z,2.62
2017-12-09T16:42:28.815Z,2.67
2017-12-09T16:44:55.806Z,2.30
2017-12-09T16:47:22.429Z,2.10
2017-12-09T16:49:49.465Z,1.50
2017-12-09T16:52:16.045Z,2.67
2017-12-09T16:54:43.034Z,2.10
2017-12-09T16:57:09.798Z,1.80
2017-12-09T16:59:36.390Z,1.55
2017-12-09T17:02:03.380Z,1.98
2017-12-09T17:04:30.146Z,1.30
2017-12-09T17:06:56.761Z,1.67
2017-12-09T17:09:23.741Z,2.08
2017-12-09T17:11:50.493Z,1.42
2017-12-09T17:14:17.153Z,2.10
2017-12-09T17:16:43.766Z,1.55
2017-12-09T17:19:10.818Z,1.70
2017-12-09T17:21:37.806Z,1.65
2017-12-09T17:24:04.423Z,1.75
2017-12-09T17:26:31.134Z,1.48
2017-12-09T17:28:57.733Z,1.77
2017-12-09T17:31:24.345Z,1.67
2017-12-09T17:33:51.009Z,2.08
2017-12-09T17:36:17.606Z,1.90
2017-12-09T17:38:44.221Z,1.87
2017-12-09T17:41:10.986Z,1.70
2017-12-09T17:43:37.602Z,1.98
2017-12-09T17:46:04.219Z,1.62
2017-12-09T17:48:30.887Z,1.65
2017-12-09T17:50:57.483Z,1.98
2017-12-09T17:53:24.105Z,1.52
2017-12-09T17:55:50.776Z,1.58
2017-12-09T17:58:17.367Z,1.98
2017-12-09T18:00:44.039Z,1.73
2017-12-09T18:03:10.694Z,1.58
2017-12-09T18:05:37.301Z,1.40
2017-12-09T18:08:03.909Z,1.73
2017-12-09T18:10:31.038Z,1.95
2017-12-09T18:12:57.671Z,1.50
2017-12-09T18:15:24.282Z,1.70
2017-12-09T18:17:50.950Z,1.85
2017-12-09T18:20:17.575Z,1.50
2017-12-09T18:22:44.207Z,2.28
2017-12-09T18:25:10.886Z,1.70
2017-12-09T18:27:37.503Z,2.20
2017-12-09T18:30:04.111Z,2.12
2017-12-09T18:32:30.797Z,1.60
2017-12-09T18:34:57.401Z,1.90
2017-12-09T18:37:24.022Z,2.03
2017-12-09T18:39:50.715Z,1.80
2017-12-09T18:42:17.333Z,1.33
2017-12-09T18:44:43.961Z,1.65
2017-12-09T18:47:12.434Z,1.35
2017-12-09T18:49:39.169Z,1.40
2017-12-09T18:52:06.838Z,1.67
2017-12-09T18:54:33.513Z,1.83
2017-12-09T18:57:00.622Z,1.30
2017-12-09T18:59:27.270Z,1.60
2017-12-09T19:01:53.975Z,1.08
2017-12-09T19:04:20.939Z,1.60
2017-12-09T19:06:47.929Z,2.12
2017-12-09T19:09:14.593Z,2.92
2017-12-09T19:11:41.224Z,1.95
2017-12-09T19:14:07.827Z,1.77
2017-12-09T19:16:34.557Z,2.53
2017-12-09T19:19:01.205Z,1.70
2017-12-09T19:21:27.807Z,1.50
2017-12-09T19:23:54.481Z,1.98
2017-12-09T19:26:21.136Z,2.22
2017-12-09T19:28:47.713Z,2.10
2017-12-09T19:31:14.386Z,2.17
2017-12-09T19:33:41.365Z,2.83
2017-12-09T19:36:07.984Z,2.25
2017-12-09T19:38:34.753Z,2.45
2017-12-09T19:41:01.746Z,1.90
2017-12-09T19:43:28.457Z,1.98
2017-12-09T19:45:56.459Z,2.80
2017-12-09T19:48:24.414Z,1.92
2017-12-09T19:50:51.418Z,2.97
2017-12-09T19:53:19.067Z,3.17
2017-12-09T19:55:45.655Z,2.10
2017-12-09T19:58:12.282Z,2.20
2017-12-09T20:00:38.941Z,2.80
2017-12-09T20:03:20.439Z,3.08
2017-12-09T20:05:48.859Z,5.40
2017-12-09T20:08:16.062Z,3.03
2017-12-09T20:10:43.154Z,1.27
2017-12-09T20:13:11.258Z,1.37
2017-12-09T20:15:37.871Z,1.40
2017-12-09T20:18:05.107Z,1.55
2017-12-09T20:20:32.289Z,1.10
2017-12-09T20:23:00.978Z,1.23
2017-12-09T20:25:27.594Z,1.55
2017-12-09T20:27:54.794Z,2.08
2017-12-09T20:30:21.498Z,1.60
2017-12-09T20:32:52.051Z,1.73
2017-12-09T20:35:21.941Z,1.48
2017-12-09T20:37:50.046Z,1.65
2017-12-09T20:40:16.650Z,1.45
2017-12-09T20:43:00.646Z,1.35
2017-12-09T20:45:34.238Z,1.60
2017-12-09T20:48:01.163Z,1.60
2017-12-09T20:50:27.755Z,1.67
2017-12-09T20:52:54.670Z,1.20
2017-12-09T20:55:22.222Z,1.58
2017-12-09T20:57:49.190Z,1.50
2017-12-09T21:00:17.029Z,1.45
2017-12-09T21:02:44.000Z,1.45
2017-12-09T21:05:11.183Z,1.30
2017-12-09T21:07:40.301Z,1.23
2017-12-09T21:10:07.302Z,1.40
2017-12-09T21:12:34.887Z,1.70
2017-12-09T21:15:01.777Z,1.45
2017-12-09T21:17:29.732Z,1.15
2017-12-09T21:19:57.461Z,1.50
2017-12-09T21:22:24.381Z,1.58
2017-12-09T21:24:51.712Z,1.10
2017-12-09T21:27:18.600Z,1.40
2017-12-09T21:29:45.875Z,1.80
2017-12-09T21:32:14.870Z,1.50
2017-12-09T21:34:42.112Z,1.85
2017-12-09T21:37:09.026Z,1.77
2017-12-09T21:39:35.976Z,1.00
2017-12-09T21:42:02.869Z,1.40
2017-12-09T21:44:29.783Z,1.33
2017-12-09T21:46:56.725Z,1.55
2017-12-09T21:49:23.599Z,1.52
2017-12-09T21:51:50.528Z,1.37
2017-12-09T21:54:17.470Z,1.12
2017-12-09T21:56:44.701Z,1.08
2017-12-09T21:59:11.557Z,1.25
2017-12-09T22:01:39.428Z,0.95
2017-12-09T22:04:06.306Z,1.30
2017-12-09T22:06:33.277Z,1.30
2017-12-09T22:09:00.626Z,1.17
2017-12-09T22:11:27.584Z,1.50
2017-12-09T22:13:54.476Z,1.30
2017-12-09T22:16:22.459Z,1.10
2017-12-09T22:18:49.378Z,0.98
2017-12-09T22:21:16.659Z,1.08
2017-12-09T22:23:44.591Z,1.27
2017-12-09T22:26:12.024Z,1.08
2017-12-09T22:28:38.923Z,1.12
2017-12-09T22:31:06.867Z,1.25
2017-12-09T22:33:33.770Z,1.67
2017-12-09T22:36:00.653Z,1.33
2017-12-09T22:38:27.690Z,1.33
2017-12-09T22:40:55.523Z,1.30
2017-12-09T22:43:22.415Z,1.58
2017-12-09T22:45:49.377Z,1.15
2017-12-09T22:48:16.612Z,0.90
2017-12-09T22:50:43.392Z,1.00
2017-12-09T22:53:10.401Z,1.20
2017-12-09T22:55:44.146Z,0.90
2017-12-09T22:58:11.058Z,1.10
2017-12-09T23:00:37.886Z,1.33
2017-12-09T23:03:05.112Z,1.20
2017-12-09T23:05:32.042Z,0.82
2017-12-09T23:07:58.916Z,1.00
2017-12-09T23:10:25.855Z,1.25
2017-12-09T23:12:52.891Z,1.45
2017-12-09T23:15:20.141Z,1.73
2017-12-09T23:17:47.461Z,1.12
2017-12-09T23:20:14.477Z,1.37
2017-12-09T23:22:41.382Z,1.40
2017-12-09T23:25:08.238Z,1.15
2017-12-09T23:27:35.197Z,1.80
2017-12-09T23:30:02.157Z,1.02
2017-12-09T23:32:29.014Z,1.30
2017-12-09T23:34:55.978Z,1.40
2017-12-09T23:37:22.855Z,1.37
2017-12-09T23:39:50.146Z,1.52
2017-12-09T23:42:17.102Z,1.20
2017-12-09T23:44:44.041Z,1.30
2017-12-09T23:47:11.006Z,1.70
2017-12-09T23:49:37.674Z,1.52
2017-12-09T23:52:04.297Z,1.67
2017-12-09T23:54:31.266Z,1.70
2017-12-09T23:56:57.925Z,2.10
2017-12-09T23:59:24.507Z,1.62
